Hidden Valley, Valles Caldera, New Mexico Weather observations

Data are for 10 minute period ending at time listed.
 Day   Time   Solar   Ave.   Ave.  Ave.  Vector  Max.   Baro.   Total    
  of    of     Rad.   Air    Rel.  Wind   Wind   Wind  Press.  Precip.   
Year   Day            Temp.  Hum.  Speed  Dir.   Gust                    
2026   (MST)  Kw/m2    F      %     mph   deg.    mph    mb.     in.     
-------------------------------------------------------------------------
 247    8:30   -8190.00   63.1    24    0.3    70     1.2     0.0    0.01 
 247    8:40   -8190.00   63.4    24    0.4    88     1.1     0.0    0.01 
 247    8:50   -8190.00   63.6    24    0.5    95     1.3     0.0    0.01 
 247    9:00   -8190.00   63.1    24    0.8    67     1.4     0.0    0.01 
 247    9:10   -8190.00   64.1    24    0.5    62     1.5     0.0    0.01 
 247    9:20   -8190.00   64.9    23    1.1    24     2.1     0.0    0.01 
 247    9:30   -8190.00   65.9    22    1.1    28     2.2     0.0    0.01 
 247    9:40   -8190.00   66.7    21    1.7   330     2.9     0.0    0.01 
 247    9:50   -8190.00   67.0    20    1.1     0     2.5     0.0    0.01 
 247   10:00   -8190.00   66.4    18    1.9   104     3.7     0.0    0.01 
 247   10:10   -8190.00   66.6    17    1.8   135     3.0     0.0    0.01 
 247   10:20   -8190.00   67.7    16    1.5   178     4.1     0.0    0.01 
 247   10:30   -8190.00   66.2    15    3.1   203     4.9     0.0    0.01 
 247   10:40   -8190.00   65.9    15    1.6   192     3.7     0.0    0.01 
 247   10:50   -8190.00   67.0    16    1.4   195     4.4     0.0    0.01 
 247   11:00   -8190.00   68.7    16    1.9   163     5.7     0.0    0.01 
 247   11:10   -8190.00   68.5    13    2.2   212     4.7     0.0    0.01 
 247   11:20   -8190.00   67.7    10    2.7   215     4.7     0.0    0.01 
 247   11:30   -8190.00   67.8     8    2.8   208     4.8     0.0    0.01 
 247   11:40   -8190.00   68.4     7    2.5   204     4.5     0.0    0.01 
 247   11:50   -8190.00   68.0     6    2.9   157     4.8     0.0    0.01 
 247   12:00   -8190.00   69.0     5    3.1   145     5.4     0.0    0.01 
 247   12:10   -8190.00   68.9     4    3.0   151     4.6     0.0    0.01 
 247   12:20   -8190.00   69.2     3    2.7   160     5.6     0.0    0.01 
 247   12:30   -8190.00   69.4     2    2.3   154     5.3     0.0    0.01 
 247   12:40   -8190.00   69.6     1    3.8   130     6.8     0.0    0.01 
 247   12:50   -8190.00   69.9     1    3.2   149     5.7     0.0    0.01 
 247   13:00   -8190.00   70.1     0    3.2   220     5.2     0.0    0.01 
 247   13:10   -8190.00   70.6     0    2.1   197     5.3     0.0    0.01 
 247   13:20   -8190.00   71.2     1    3.5   188     6.4     0.0    0.01 
 247   13:30   -8190.00   71.3     0    1.8   205     3.9     0.0    0.01 
 247   13:40   -8190.00   72.0     0    1.4   188     3.6     0.0    0.01 
 247   13:50   -8190.00   72.7     0    1.9   229     4.7     0.0    0.01 
 247   14:00   -8190.00   73.1     0    2.8   142     5.4     0.0    0.01 
 247   14:10   -8190.00   73.0    -0    3.0   176     6.1     0.0    0.01 
 247   14:20   -8190.00   73.1    -1    2.7   210     5.5     0.0    0.01 
 247   14:30   -8190.00   73.3    -1    2.7   213     5.3     0.0    0.01 
 247   14:40   -8190.00   72.1    -2    1.5   208     4.3     0.0    0.01 
 247   14:50   -8190.00   72.0    -2    1.3   166     2.6     0.0    0.01 
 247   15:00   -8190.00   71.0    -2    1.7   189     2.5     0.0    0.01 
 247   15:10   -8190.00   71.2    -2    1.2   158     2.3     0.0    0.01 
 247   15:20   -8190.00   71.0    -2    1.5   131     2.4     0.0    0.01 
 247   15:30   -8190.00   70.5    -2    1.9   117     2.9     0.0    0.01 
 247   15:40   -8190.00   70.8    -1    2.3   121     3.5     0.0    0.01 
 247   15:50   -8190.00   71.3    -1    2.1   120     3.8     0.0    0.01 
 247   16:00   -8190.00   69.2    -2    2.0   137     4.8     0.0    0.01 
 247   16:10   -8190.00   68.5    -2    2.0   138     4.7     0.0    0.01 
 247   16:20   -8190.00   65.6    -3    1.2   140     4.1     0.0    0.01 
 247   16:30   -8190.00   65.4    -2    1.0   328     3.1     0.0    0.01 
 247   16:40   -8190.00   65.4    -2    3.6     2     5.5     0.0    0.01 
 247   16:50   -8190.00   64.0    -2    3.3    26     5.3     0.0    0.01 
 247   17:00   -8190.00   62.5    -2    2.1    39     3.5     0.0    0.01 
 247   17:10   -8190.00   61.9    -2    2.8   324     4.0     0.0    0.01 
 247   17:20   -8190.00   61.4    -2    2.0   336     3.0     0.0    0.01 
 247   17:30   -8190.00   61.8    -1    1.3   354     2.1     0.0    0.01 
 247   17:40   -8190.00   61.6    -1    0.5    20     1.3     0.0    0.01 
 247   17:50   -8190.00   61.0    -1    0.2    99     0.7     0.0    0.01 
 247   18:00   -8190.00   60.9    -1    0.0   104     0.3     0.0    0.01 
 247   18:10   -8190.00   60.7    -1    0.2    48     1.0     0.0    0.01 
 247   18:20   -8190.00   59.6    -1    1.3    19     1.9     0.0    0.01 
 247   18:30   -8190.00   59.4    -1    1.0    18     1.4     0.0    0.01 
 247   18:40   5.22   59.0    -1    0.6    51     1.2     0.0    0.01 
 247   18:50   5.18   58.5    -0    0.8    92     1.9     0.0    0.01 
 247   19:00   5.15   58.2     1    0.9   343     1.8     0.0    0.01 
 247   19:10   5.02   58.0     2    0.4    44     1.4     0.0    0.01 
 247   19:20   4.95   57.8     4    0.0     0     0.0     0.0    0.01 
 247   19:30   4.82   57.6     6    0.0   150     0.6     0.0    0.01 
 247   19:40   4.80   57.7     7    0.0   150     0.3     0.0    0.01 
 247   19:50   5.10   58.4     8    0.7   200     1.4     0.0    0.01 
 247   20:00   5.10   59.2     9    0.4   268     1.1     0.0    0.01 
 247   20:10   5.08   58.4     8    2.0    94     3.5     0.0    0.01 
 247   20:20   5.07   58.1     8    0.2    54     1.5     0.0    0.01 
 247   20:30   5.00   57.8     8    0.0     0     0.0     0.0    0.01 
 247   20:40   4.72   57.1     9    0.3    58     0.8     0.0    0.01 
 247   20:50   4.70   56.3    10    0.6   264     1.5     0.0    0.01 
 247   21:00   4.29   55.0    12    0.9    56     1.6     0.0    0.01 
 247   21:10   4.08   53.7    12    0.6   158     1.0     0.0    0.01 
 247   21:20   3.76   54.0    13    0.4   240     1.6     0.0    0.01 
 247   21:30   3.66   53.4    14    0.2   216     0.7     0.0    0.01 
 247   21:40   3.38   51.9    14    1.3    60     2.0     0.0    0.01 
 247   21:50   3.54   50.6    16    0.6   339     1.2     0.0    0.01 
 247   22:00   3.29   50.6    16    0.5   297     1.3     0.0    0.01 
 247   22:10   2.85   50.2    17    0.7   169     1.4     0.0    0.01 
 247   22:20   2.85   49.1    17    0.8    29     1.3     0.0    0.01 
 247   22:30   2.77   48.1    18    0.6   355     1.3     0.0    0.01 
 247   22:40   2.79   48.2    19    0.6   122     1.4     0.0    0.01 
 247   22:50   2.80   47.6    21    0.1   213     0.8     0.0    0.01 
 247   23:00   2.86   47.1    21    0.1   229     0.4     0.0    0.01 
 247   23:10   2.87   46.7    21    0.1   217     0.5     0.0    0.01 
 247   23:20   2.96   46.6    20    0.8   181     1.7     0.0    0.01 
 247   23:30   2.53   47.2    20    0.4   188     1.5     0.0    0.01 
 247   23:40   2.63   46.4    21    0.8     1     1.6     0.0    0.01 
 247   23:50   2.60   46.2    20    0.8   116     1.4     0.0    0.01 
 248    0:00   2.84   46.3    20    0.1   131     0.5     0.0    0.01 
 248    0:10   3.15   46.2    20    0.1   115     0.5     0.0    0.01 
 248    0:20   3.16   45.6    21    0.0   109     0.4     0.0    0.01 
 248    0:30   3.02   45.4    22    0.0   129     0.3     0.0    0.01 
 248    0:40   2.84   45.3    21    0.0   129     0.2     0.0    0.01 
 248    0:50   2.61   44.4    22    0.0   108     0.4     0.0    0.01 
 248    1:00   2.48   44.4    22    0.1   109     0.7     0.0    0.01 
 248    1:10   2.45   43.6    22    0.1   108     0.5     0.0    0.01 
 248    1:20   2.49   43.5    21    0.0   108     0.4     0.0    0.01 
 248    1:30   2.57   42.8    21    0.0   108     0.5     0.0    0.01 
 248    1:40   2.44   42.9    21    0.0   108     0.4     0.0    0.01 
 248    1:50   2.39   43.0    20    0.0   110     0.4     0.0    0.01 
 248    2:00   2.44   43.0    21    0.2    22     1.4     0.0    0.01 
 248    2:10   2.42   43.9    22    0.6   303     1.9     0.0    0.01 
 248    2:20   2.38   44.2    22    0.0   255     0.4     0.0    0.01 
 248    2:30   2.37   44.1    22    0.4   217     1.2     0.0    0.01 
 248    2:40   2.42   43.9    22    0.3   274     1.4     0.0    0.01 
 248    2:50   2.38   43.4    22    0.5   277     1.7     0.0    0.01 
 248    3:00   2.38   43.6    21    0.1   213     0.9     0.0    0.01 
 248    3:10   2.26   44.4    23    0.2   240     1.0     0.0    0.01 
 248    3:20   2.27   44.6    23    0.1   227     0.5     0.0    0.01 
 248    3:30   2.32   45.0    23    0.3   125     1.3     0.0    0.01 
 248    3:40   2.32   45.0    22    1.2    20     2.2     0.0    0.01 
 248    3:50   2.32   45.1    22    0.2   128     1.4     0.0    0.01 
 248    4:00   2.33   44.9    22    0.1   136     0.7     0.0    0.01 
 248    4:10   2.31   44.6    22    0.1    37     0.7     0.0    0.01 
 248    4:20   2.40   44.0    22    0.0     0     0.0     0.0    0.01 
 248    4:30   2.38   43.3    23    0.1   126     0.6     0.0    0.01 
 248    4:40   2.42   42.9    23    0.2   141     0.6     0.0    0.01 
 248    4:50   2.25   41.6    23    0.6     1     1.6     0.0    0.01 
 248    5:00   2.23   39.9    23    0.7     1     1.6     0.0    0.01 
 248    5:10   2.46   39.6    23    0.5    42     1.4     0.0    0.01 
 248    5:20   2.10   39.7    24    1.5    98     2.5     0.0    0.01 
 248    5:30   1.93   40.3    25    0.5   237     1.8     0.0    0.01 
 248    5:40   1.89   41.5    24    0.4   273     1.3     0.0    0.01 
 248    5:50   2.11   41.4    24    0.2   265     0.7     0.0    0.01 
 248    6:00   2.06   41.2    23    0.3   128     0.9     0.0    0.01 
 248    6:10   2.10   41.4    24    0.0   177     0.3     0.0    0.01 
 248    6:20   2.16   41.3    26    0.9    35     1.5     0.0    0.01 
 248    6:30   3.16   41.9    26    0.2    28     0.8     0.0    0.01 
 248    6:40   4.48   42.5    26    0.5    59     1.0     0.0    0.01 
 248    6:50   4.62   43.2    25    0.4    33     1.0     0.0    0.01 
 248    7:00   4.70   44.2    26    0.1    29     0.4     0.0    0.01 
 248    7:10   -8190.00   45.9    24    0.1    17     0.8     0.0    0.01 
 248    7:20   -8190.00   47.7    24    0.3     4     0.8     0.0    0.01 
 248    7:30   -8190.00   49.4    23    0.4    45     0.9     0.0    0.01 
 248    7:40   -8190.00   51.4    23    0.0    46     0.4     0.0    0.01 
 248    7:50   -8190.00   52.6    23    0.3   117     1.0     0.0    0.01 
 248    8:00   -8190.00   54.4    23    0.4    12     1.5     0.0    0.01 
 248    8:10   -8190.00   56.8    23    0.3    42     1.1     0.0    0.01 
 248    8:20   -8190.00   60.1    22    0.5    84     1.1     0.0    0.01 

Return to Hidden Valley, Valles Caldera graphs page.


Western Regional Climate Center,wrcc@dri.edu